createdAt,value
2018-03-27T00:00:19.867Z,54.63
2018-03-27T00:02:52.520Z,54.26
2018-03-27T00:05:25.071Z,53.80
2018-03-27T00:07:57.602Z,55.11
2018-03-27T00:10:30.108Z,55.79
2018-03-27T00:13:02.586Z,55.60
2018-03-27T00:15:35.071Z,55.24
2018-03-27T00:18:07.563Z,55.07
2018-03-27T00:20:40.036Z,55.07
2018-03-27T00:23:12.523Z,54.65
2018-03-27T00:25:44.991Z,54.09
2018-03-27T00:28:29.274Z,54.29
2018-03-27T00:31:13.599Z,54.33
2018-03-27T00:33:57.922Z,54.23
2018-03-27T00:36:42.400Z,54.37
2018-03-27T00:39:26.735Z,53.96
2018-03-27T00:45:05.146Z,53.70
2018-03-27T00:47:37.634Z,53.92
2018-03-27T00:50:10.101Z,54.02
2018-03-27T00:52:42.587Z,54.27
2018-03-27T00:55:15.054Z,54.42
2018-03-27T00:57:47.686Z,54.22
2018-03-27T01:00:20.346Z,54.06
2018-03-27T01:02:53.240Z,53.79
2018-03-27T01:05:25.790Z,53.77
2018-03-27T01:07:58.386Z,55.79
2018-03-27T01:10:30.863Z,56.04
2018-03-27T01:13:03.357Z,55.20
2018-03-27T01:15:35.831Z,54.78
2018-03-27T01:18:08.319Z,54.92
2018-03-27T01:20:40.797Z,54.29
2018-03-27T01:23:13.286Z,54.74
2018-03-27T01:25:45.754Z,54.68
2018-03-27T01:28:19.326Z,54.67
2018-03-27T01:30:52.024Z,54.18
2018-03-27T01:33:24.642Z,53.97
2018-03-27T01:35:57.188Z,54.06
2018-03-27T01:38:29.688Z,54.34
2018-03-27T01:41:02.162Z,54.00
2018-03-27T01:43:34.651Z,54.24
2018-03-27T01:46:07.130Z,54.16
2018-03-27T01:48:39.627Z,53.78
2018-03-27T01:51:12.109Z,53.85
2018-03-27T01:53:44.603Z,54.12
2018-03-27T01:56:17.661Z,53.95
2018-03-27T01:58:50.351Z,54.05
2018-03-27T02:01:23.103Z,54.11
2018-03-27T02:03:55.846Z,54.96
2018-03-27T02:06:28.444Z,54.94
2018-03-27T02:09:00.964Z,54.70
2018-03-27T02:11:39.118Z,54.96
2018-03-27T02:14:18.230Z,55.34
2018-03-27T02:16:56.492Z,55.06
2018-03-27T02:19:34.515Z,54.61
2018-03-27T02:22:06.464Z,54.51
2018-03-27T02:24:38.998Z,54.53
2018-03-27T02:27:11.465Z,54.35
2018-03-27T02:29:43.959Z,54.36
2018-03-27T02:32:16.479Z,54.28
2018-03-27T02:34:51.822Z,54.33
2018-03-27T02:37:24.376Z,54.32
2018-03-27T02:39:56.959Z,54.28
2018-03-27T02:42:29.516Z,54.30
2018-03-27T02:45:02.038Z,54.90
2018-03-27T02:47:34.524Z,55.26
2018-03-27T02:50:07.037Z,55.94
2018-03-27T02:52:39.516Z,56.35
2018-03-27T02:55:12.023Z,56.52
2018-03-27T02:57:44.506Z,56.08
2018-03-27T03:00:17.092Z,55.57
2018-03-27T03:02:50.087Z,55.20
2018-03-27T03:05:22.740Z,54.90
2018-03-27T03:07:55.356Z,54.82
2018-03-27T03:10:27.926Z,55.18
2018-03-27T03:13:00.403Z,55.18
2018-03-27T03:15:32.909Z,55.02
2018-03-27T03:18:05.395Z,54.72
2018-03-27T03:20:37.895Z,54.93
2018-03-27T03:23:10.374Z,54.82
2018-03-27T03:25:42.875Z,54.73
2018-03-27T03:28:15.350Z,54.67
2018-03-27T03:30:48.546Z,54.49
2018-03-27T03:33:21.152Z,55.85
2018-03-27T03:35:53.725Z,57.31
2018-03-27T03:38:26.287Z,56.31
2018-03-27T03:40:58.863Z,56.10
2018-03-27T03:43:31.368Z,56.64
2018-03-27T03:46:03.867Z,56.56
2018-03-27T03:48:36.350Z,57.58
2018-03-27T03:51:08.847Z,56.74
2018-03-27T03:53:41.878Z,57.10
2018-03-27T03:56:14.374Z,59.16
2018-03-27T03:58:46.996Z,59.03
2018-03-27T04:01:19.848Z,59.59
2018-03-27T04:03:52.472Z,61.34
2018-03-27T04:06:25.096Z,59.33
2018-03-27T04:08:57.676Z,58.02
2018-03-27T04:11:30.344Z,57.40
2018-03-27T04:14:02.831Z,58.48
2018-03-27T04:16:35.330Z,58.30
2018-03-27T04:19:07.806Z,57.09
2018-03-27T04:21:40.297Z,56.64
2018-03-27T04:24:12.774Z,56.63
2018-03-27T04:26:45.266Z,56.34
2018-03-27T04:29:18.020Z,55.88
2018-03-27T04:31:50.718Z,55.64
2018-03-27T04:34:23.769Z,55.47
2018-03-27T04:36:56.306Z,55.55
2018-03-27T04:39:29.241Z,55.52
2018-03-27T04:42:01.903Z,55.62
2018-03-27T04:44:34.402Z,55.82
2018-03-27T04:47:06.886Z,55.61
2018-03-27T04:49:39.384Z,55.12
2018-03-27T04:52:11.875Z,55.30
2018-03-27T04:54:44.374Z,55.31
2018-03-27T04:57:16.988Z,55.23
2018-03-27T04:59:49.795Z,55.76
2018-03-27T05:02:22.405Z,56.47
2018-03-27T05:04:55.088Z,56.08
2018-03-27T05:07:27.709Z,55.88
2018-03-27T05:10:00.323Z,55.83
2018-03-27T05:12:32.871Z,55.67
2018-03-27T05:15:05.374Z,55.66
2018-03-27T05:17:37.846Z,56.09
2018-03-27T05:20:10.380Z,56.51
2018-03-27T05:22:42.850Z,56.86
2018-03-27T05:25:15.366Z,57.52
2018-03-27T05:27:48.005Z,57.43
2018-03-27T05:30:20.673Z,57.92
2018-03-27T05:32:53.318Z,57.08
2018-03-27T05:35:26.011Z,58.96
2018-03-27T05:37:58.652Z,58.15
2018-03-27T05:40:31.232Z,57.22
2018-03-27T05:43:03.742Z,56.72
2018-03-27T05:45:36.250Z,56.58
2018-03-27T05:48:08.726Z,57.03
2018-03-27T05:50:41.242Z,58.58
2018-03-27T05:53:13.722Z,58.28
2018-03-27T05:55:46.228Z,58.69
2018-03-27T05:58:19.903Z,60.63
2018-03-27T06:00:52.631Z,59.68
2018-03-27T06:03:25.454Z,58.41
2018-03-27T06:05:58.081Z,57.59
2018-03-27T06:08:30.624Z,56.84
2018-03-27T06:11:03.141Z,56.25
2018-03-27T06:13:35.635Z,56.16
2018-03-27T06:16:08.143Z,56.23
2018-03-27T06:18:40.634Z,57.13
2018-03-27T06:21:13.134Z,58.76
2018-03-27T06:23:45.609Z,60.08
2018-03-27T06:26:19.314Z,60.33
2018-03-27T06:28:52.227Z,58.84
2018-03-27T06:31:24.999Z,57.68
2018-03-27T06:33:57.627Z,56.92
2018-03-27T06:36:30.230Z,56.59
2018-03-27T06:39:02.780Z,56.62
2018-03-27T06:41:35.278Z,57.57
2018-03-27T06:44:07.773Z,58.02
2018-03-27T06:46:40.278Z,58.33
2018-03-27T06:49:12.757Z,57.59
2018-03-27T06:51:45.254Z,58.86
2018-03-27T06:54:18.340Z,60.18
2018-03-27T06:56:51.337Z,60.19
2018-03-27T06:59:24.004Z,58.93
2018-03-27T07:01:56.709Z,57.97
2018-03-27T07:04:29.322Z,57.37
2018-03-27T07:07:01.907Z,56.88
2018-03-27T07:09:34.396Z,57.39
2018-03-27T07:12:06.934Z,58.42
2018-03-27T07:14:39.418Z,58.89
2018-03-27T07:17:11.917Z,57.84
2018-03-27T07:19:44.944Z,57.27
2018-03-27T07:22:17.790Z,56.89
2018-03-27T07:24:50.469Z,57.10
2018-03-27T07:27:23.109Z,57.08
2018-03-27T07:29:55.803Z,57.51
2018-03-27T07:32:28.486Z,58.35
2018-03-27T07:35:00.985Z,59.73
2018-03-27T07:37:33.497Z,60.09
2018-03-27T07:40:05.979Z,59.75
2018-03-27T07:42:38.482Z,57.76
2018-03-27T07:45:10.966Z,56.07
2018-03-27T07:47:43.571Z,55.25
2018-03-27T07:50:16.053Z,55.43
2018-03-27T07:52:48.739Z,54.85
2018-03-27T07:55:21.436Z,55.41
2018-03-27T07:57:54.094Z,54.66
2018-03-27T08:00:26.734Z,54.66
2018-03-27T08:02:59.271Z,54.90
2018-03-27T08:05:31.806Z,54.89
2018-03-27T08:08:04.302Z,54.42
2018-03-27T08:10:36.809Z,54.05
2018-03-27T08:13:09.295Z,53.26
2018-03-27T08:15:41.800Z,52.17
2018-03-27T08:18:14.285Z,51.45
2018-03-27T08:20:46.820Z,50.49
2018-03-27T08:23:19.547Z,50.29
2018-03-27T08:25:52.286Z,48.34
2018-03-27T08:28:24.838Z,47.82
2018-03-27T08:30:57.473Z,47.44
2018-03-27T08:33:30.038Z,46.70
2018-03-27T08:36:02.534Z,42.82
2018-03-27T08:38:35.115Z,42.98
2018-03-27T08:41:07.615Z,44.69
2018-03-27T08:43:40.099Z,43.91
2018-03-27T08:46:12.602Z,43.79
2018-03-27T08:48:45.082Z,43.62
2018-03-27T08:51:17.816Z,42.50
2018-03-27T08:53:50.809Z,42.07
2018-03-27T08:56:23.578Z,41.15
2018-03-27T08:58:56.146Z,39.77
2018-03-27T09:01:28.759Z,36.86
2018-03-27T09:04:01.284Z,39.33
2018-03-27T09:06:33.777Z,38.66
2018-03-27T09:09:06.255Z,38.01
2018-03-27T09:11:38.784Z,37.83
2018-03-27T09:14:11.258Z,38.32
2018-03-27T09:16:43.762Z,36.87
2018-03-27T09:19:16.245Z,37.78
2018-03-27T09:21:48.904Z,38.14
2018-03-27T09:24:21.723Z,37.31
2018-03-27T09:26:54.343Z,37.08
2018-03-27T09:29:26.943Z,37.44
2018-03-27T09:31:59.496Z,36.11
2018-03-27T09:34:32.015Z,35.27
2018-03-27T09:37:04.501Z,34.77
2018-03-27T09:39:37.097Z,34.43
2018-03-27T09:42:09.634Z,32.57
2018-03-27T09:44:42.114Z,33.50
2018-03-27T09:47:14.607Z,33.75
2018-03-27T09:49:47.788Z,31.19
2018-03-27T09:52:20.379Z,30.32
2018-03-27T09:54:52.891Z,29.93
2018-03-27T09:57:25.568Z,29.15
2018-03-27T09:59:58.079Z,28.87
2018-03-27T10:02:30.583Z,31.51
2018-03-27T10:05:03.063Z,29.37
2018-03-27T10:07:35.559Z,29.46
2018-03-27T10:10:08.043Z,27.36
2018-03-27T10:12:40.547Z,29.30
2018-03-27T10:15:13.021Z,30.08
2018-03-27T10:17:45.518Z,27.10
2018-03-27T10:20:18.097Z,28.57
2018-03-27T10:22:50.637Z,26.75
2018-03-27T10:25:23.196Z,27.51
2018-03-27T10:27:55.815Z,30.00
2018-03-27T10:30:28.337Z,28.65
2018-03-27T10:33:00.853Z,29.19
2018-03-27T10:35:33.318Z,29.89
2018-03-27T10:38:05.811Z,28.03
2018-03-27T10:40:38.286Z,29.45
2018-03-27T10:43:10.778Z,28.74
2018-03-27T10:45:43.247Z,29.09
2018-03-27T10:48:15.742Z,28.82
2018-03-27T10:50:48.378Z,28.46
2018-03-27T10:53:21.000Z,29.26
2018-03-27T10:55:53.520Z,29.01
2018-03-27T10:58:26.230Z,30.22
2018-03-27T11:00:58.737Z,29.23
2018-03-27T11:03:31.327Z,28.55
2018-03-27T11:06:03.798Z,29.84
2018-03-27T11:08:36.290Z,29.39
2018-03-27T11:11:08.818Z,28.74
2018-03-27T11:13:41.307Z,28.81
2018-03-27T11:16:13.794Z,29.57
2018-03-27T11:18:46.292Z,29.02
2018-03-27T11:21:18.861Z,30.34
2018-03-27T11:23:51.431Z,29.35
2018-03-27T11:26:23.948Z,29.14
2018-03-27T11:28:56.490Z,28.84
2018-03-27T11:31:28.967Z,28.05
2018-03-27T11:34:01.471Z,28.35
2018-03-27T11:36:33.954Z,28.74
2018-03-27T11:39:07.384Z,27.77
2018-03-27T11:41:39.895Z,28.56
2018-03-27T11:44:12.371Z,29.70
2018-03-27T11:46:44.879Z,28.73
2018-03-27T11:49:17.414Z,27.85
2018-03-27T11:51:49.960Z,28.11
2018-03-27T11:54:22.483Z,28.31
2018-03-27T11:56:55.014Z,28.25
2018-03-27T11:59:27.561Z,28.76
2018-03-27T12:02:00.058Z,27.60
2018-03-27T12:04:32.536Z,29.04
2018-03-27T12:07:05.043Z,29.07
2018-03-27T12:09:37.518Z,28.54
2018-03-27T12:12:10.026Z,27.54
2018-03-27T12:14:42.511Z,28.17
2018-03-27T12:17:15.009Z,27.25
2018-03-27T12:19:47.527Z,27.46
2018-03-27T12:22:20.216Z,27.50
2018-03-27T12:24:52.768Z,28.18
2018-03-27T12:27:25.306Z,28.38
2018-03-27T12:29:57.807Z,28.09
2018-03-27T12:32:30.309Z,29.33
2018-03-27T12:35:02.787Z,27.71
2018-03-27T12:37:35.286Z,28.98
2018-03-27T12:40:07.772Z,28.69
2018-03-27T12:42:40.270Z,29.45
2018-03-27T12:45:12.739Z,27.78
2018-03-27T12:47:45.282Z,27.74
2018-03-27T12:50:17.759Z,28.04
2018-03-27T12:52:50.333Z,28.04
2018-03-27T12:55:22.872Z,28.65
2018-03-27T12:57:55.414Z,27.84
2018-03-27T13:00:27.953Z,28.23
2018-03-27T13:03:00.450Z,28.70
2018-03-27T13:05:32.931Z,29.30
2018-03-27T13:08:05.431Z,29.03
2018-03-27T13:10:37.911Z,28.34
2018-03-27T13:13:10.407Z,26.24
2018-03-27T13:15:42.889Z,27.46
2018-03-27T13:18:15.386Z,26.28
2018-03-27T13:20:47.950Z,26.98
2018-03-27T13:23:20.678Z,26.01
2018-03-27T13:25:53.228Z,27.47
2018-03-27T13:28:25.791Z,27.82
2018-03-27T13:30:58.274Z,26.25
2018-03-27T13:33:30.769Z,26.46
2018-03-27T13:36:03.243Z,26.48
2018-03-27T13:38:35.735Z,27.00
2018-03-27T13:41:08.207Z,27.50
2018-03-27T13:43:40.702Z,27.80
2018-03-27T13:46:13.239Z,27.44
2018-03-27T13:48:45.751Z,28.36
2018-03-27T13:51:18.300Z,29.11
2018-03-27T13:53:50.902Z,28.02
2018-03-27T13:56:23.407Z,28.13
2018-03-27T13:58:55.986Z,28.96
2018-03-27T14:01:28.482Z,29.21
2018-03-27T14:04:00.991Z,29.46
2018-03-27T14:06:33.466Z,29.77
2018-03-27T14:09:05.982Z,28.62
2018-03-27T14:11:38.470Z,30.41
2018-03-27T14:14:10.961Z,30.08
2018-03-27T14:16:43.459Z,28.82
2018-03-27T14:19:15.958Z,29.83
2018-03-27T14:21:48.464Z,29.73
2018-03-27T14:24:21.007Z,29.76
2018-03-27T14:26:53.502Z,29.90
2018-03-27T14:29:25.999Z,29.36
2018-03-27T14:31:58.466Z,29.90
2018-03-27T14:34:30.975Z,29.93
2018-03-27T14:37:03.460Z,29.60
2018-03-27T14:39:35.950Z,29.83
2018-03-27T14:42:08.447Z,29.62
2018-03-27T14:44:41.006Z,29.02
2018-03-27T14:47:13.477Z,29.51
2018-03-27T14:49:45.975Z,29.58
2018-03-27T14:52:18.462Z,29.45
2018-03-27T14:54:51.025Z,30.35
2018-03-27T14:57:23.559Z,30.22
2018-03-27T14:59:56.135Z,29.54
2018-03-27T15:02:28.622Z,29.83
2018-03-27T15:05:01.114Z,29.88
2018-03-27T15:07:33.586Z,29.76
2018-03-27T15:10:06.138Z,29.61
2018-03-27T15:12:38.611Z,29.87
2018-03-27T15:15:11.087Z,30.02
2018-03-27T15:17:43.589Z,30.03
2018-03-27T15:20:16.124Z,30.01
2018-03-27T15:22:48.720Z,30.27
2018-03-27T15:25:21.279Z,30.60
2018-03-27T15:27:53.856Z,31.43
2018-03-27T15:30:26.422Z,30.58
2018-03-27T15:32:58.928Z,30.81
2018-03-27T15:35:31.403Z,31.45
2018-03-27T15:38:03.898Z,31.35
2018-03-27T15:40:36.370Z,30.53
2018-03-27T15:43:08.862Z,30.91
2018-03-27T15:45:41.335Z,31.70
2018-03-27T15:48:13.834Z,31.80
2018-03-27T15:50:46.302Z,31.72
2018-03-27T15:53:18.874Z,33.25
2018-03-27T15:55:51.398Z,32.58
2018-03-27T15:58:23.967Z,32.90
2018-03-27T16:00:56.482Z,33.66
2018-03-27T16:03:28.986Z,32.62
2018-03-27T16:06:02.382Z,33.64
2018-03-27T16:08:34.890Z,33.70
2018-03-27T16:11:07.362Z,33.55
2018-03-27T16:13:39.852Z,33.20
2018-03-27T16:16:12.336Z,33.24
2018-03-27T16:18:44.842Z,33.96
2018-03-27T16:21:17.358Z,33.53
2018-03-27T16:23:49.997Z,32.84
2018-03-27T16:26:22.579Z,33.84
2018-03-27T16:28:55.216Z,33.71
2018-03-27T16:31:27.720Z,33.78
2018-03-27T16:34:00.233Z,33.84
2018-03-27T16:36:32.954Z,33.99
2018-03-27T16:39:05.500Z,33.95
2018-03-27T16:41:38.006Z,33.45
2018-03-27T16:44:10.503Z,33.97
2018-03-27T16:46:42.974Z,33.90
2018-03-27T16:49:15.544Z,34.13
2018-03-27T16:51:48.106Z,34.44
2018-03-27T16:54:20.678Z,35.16
2018-03-27T16:56:53.201Z,35.42
2018-03-27T16:59:25.780Z,35.64
2018-03-27T17:01:58.289Z,35.54
2018-03-27T17:04:30.821Z,35.89
2018-03-27T17:07:03.306Z,36.01
2018-03-27T17:09:53.408Z,36.10
2018-03-27T17:12:25.926Z,35.98
2018-03-27T17:15:07.334Z,36.23
2018-03-27T17:17:39.806Z,36.56
2018-03-27T17:20:12.308Z,36.44
2018-03-27T17:22:44.785Z,37.06
2018-03-27T17:25:17.416Z,37.12
2018-03-27T17:27:50.070Z,37.18
2018-03-27T17:30:22.655Z,37.15
2018-03-27T17:32:55.226Z,37.75
2018-03-27T17:35:27.754Z,37.80
2018-03-27T17:38:00.247Z,37.38
2018-03-27T17:40:32.756Z,37.59
2018-03-27T17:43:05.226Z,37.79
2018-03-27T17:45:37.725Z,37.86
2018-03-27T17:48:10.209Z,38.32
2018-03-27T17:50:42.715Z,38.07
2018-03-27T17:53:15.188Z,38.66
2018-03-27T17:55:47.703Z,39.43
2018-03-27T17:58:20.317Z,39.68
2018-03-27T18:00:52.991Z,39.46
2018-03-27T18:03:25.494Z,39.49
2018-03-27T18:05:58.035Z,40.06
2018-03-27T18:08:30.516Z,39.73
2018-03-27T18:11:03.019Z,39.50
2018-03-27T18:13:35.550Z,39.97
2018-03-27T18:16:08.029Z,39.27
2018-03-27T18:18:40.530Z,39.33
2018-03-27T18:21:13.058Z,39.54
2018-03-27T18:23:45.544Z,39.71
2018-03-27T18:26:18.107Z,39.89
2018-03-27T18:28:50.727Z,40.28
2018-03-27T18:31:23.337Z,40.71
2018-03-27T18:33:55.898Z,40.56
2018-03-27T18:36:28.406Z,40.61
2018-03-27T18:39:00.918Z,40.52
2018-03-27T18:41:33.410Z,41.26
2018-03-27T18:44:06.004Z,41.42
2018-03-27T18:46:38.487Z,40.83
2018-03-27T18:49:11.035Z,41.22
2018-03-27T18:51:43.582Z,41.12
2018-03-27T18:54:16.091Z,40.94
2018-03-27T18:56:48.762Z,40.62
2018-03-27T18:59:21.484Z,41.25
2018-03-27T19:01:54.043Z,41.47
2018-03-27T19:04:26.601Z,41.35
2018-03-27T19:06:59.089Z,41.74
2018-03-27T19:09:31.582Z,42.05
2018-03-27T19:12:04.062Z,42.12
2018-03-27T19:14:36.566Z,42.07
2018-03-27T19:17:09.051Z,41.80
2018-03-27T19:19:41.550Z,41.81
2018-03-27T19:22:14.029Z,42.24
2018-03-27T19:24:46.522Z,42.26
2018-03-27T19:27:19.142Z,42.33
2018-03-27T19:29:51.662Z,42.55
2018-03-27T19:32:24.246Z,42.26
2018-03-27T19:34:56.882Z,42.45
2018-03-27T19:37:29.366Z,42.43
2018-03-27T19:40:01.864Z,42.02
2018-03-27T19:42:34.356Z,42.26
2018-03-27T19:45:06.857Z,42.50
2018-03-27T19:47:39.326Z,42.43
2018-03-27T19:50:11.822Z,42.10
2018-03-27T19:52:44.303Z,42.23
2018-03-27T19:55:16.815Z,42.55
2018-03-27T19:57:49.394Z,42.84
2018-03-27T20:00:21.987Z,42.85
2018-03-27T20:02:54.561Z,42.84
2018-03-27T20:05:27.187Z,42.83
2018-03-27T20:07:59.716Z,42.53
2018-03-27T20:10:32.224Z,43.04
2018-03-27T20:13:04.709Z,42.76
2018-03-27T20:15:41.703Z,42.79
2018-03-27T20:18:09.717Z,42.30
2018-03-27T20:20:42.268Z,43.00
2018-03-27T20:23:15.137Z,43.30
2018-03-27T20:25:47.756Z,43.18
2018-03-27T20:28:20.341Z,42.69
2018-03-27T20:30:52.997Z,43.22
2018-03-27T20:33:25.517Z,43.59
2018-03-27T20:35:58.026Z,42.87
2018-03-27T20:38:30.574Z,43.31
2018-03-27T20:41:03.246Z,43.05
2018-03-27T20:43:35.734Z,42.63
2018-03-27T20:46:08.234Z,43.52
2018-03-27T20:48:40.722Z,42.60
2018-03-27T20:51:13.526Z,43.03
2018-03-27T20:53:46.034Z,43.75
2018-03-27T20:56:18.678Z,43.65
2018-03-27T20:58:51.335Z,43.29
2018-03-27T21:01:23.893Z,43.77
2018-03-27T21:03:57.355Z,43.38
2018-03-27T21:06:29.926Z,44.07
2018-03-27T21:09:02.604Z,43.85
2018-03-27T21:11:35.175Z,43.49
2018-03-27T21:14:07.662Z,44.06
2018-03-27T21:16:40.358Z,44.56
2018-03-27T21:19:14.055Z,44.05
2018-03-27T21:21:46.714Z,43.74
2018-03-27T21:24:19.365Z,43.73
2018-03-27T21:26:52.777Z,44.00
2018-03-27T21:29:25.393Z,44.63
2018-03-27T21:31:57.915Z,44.27
2018-03-27T21:34:30.490Z,44.93
2018-03-27T21:37:03.432Z,45.46
2018-03-27T21:39:36.001Z,45.74
2018-03-27T21:42:08.576Z,46.36
2018-03-27T21:44:41.211Z,46.61
2018-03-27T21:47:13.748Z,46.93
2018-03-27T21:49:46.229Z,47.59
2018-03-27T21:52:18.941Z,48.30
2018-03-27T21:54:51.456Z,49.46
2018-03-27T21:57:24.045Z,50.05
2018-03-27T21:59:56.526Z,50.79
2018-03-27T22:02:29.121Z,51.01
2018-03-27T22:05:01.615Z,51.63
2018-03-27T22:07:34.234Z,51.66
2018-03-27T22:10:06.712Z,52.33
2018-03-27T22:12:39.467Z,51.63
2018-03-27T22:15:12.000Z,51.29
2018-03-27T22:17:44.511Z,51.13
2018-03-27T22:20:17.034Z,51.21
2018-03-27T22:22:49.814Z,51.56
2018-03-27T22:25:22.472Z,51.69
2018-03-27T22:27:55.086Z,52.62
2018-03-27T22:30:27.698Z,52.86
2018-03-27T22:33:00.265Z,52.46
2018-03-27T22:35:32.770Z,52.59
2018-03-27T22:38:05.258Z,53.09
2018-03-27T22:40:37.758Z,52.56
2018-03-27T22:43:10.276Z,52.71
2018-03-27T22:45:42.841Z,52.63
2018-03-27T22:48:15.427Z,52.76
2018-03-27T22:50:48.290Z,52.90
2018-03-27T22:53:20.971Z,52.64
2018-03-27T22:55:53.656Z,53.22
2018-03-27T22:58:26.234Z,52.96
2018-03-27T23:00:58.881Z,53.29
2018-03-27T23:03:31.401Z,53.88
2018-03-27T23:06:03.920Z,54.18
2018-03-27T23:08:36.401Z,54.70
2018-03-27T23:11:08.904Z,54.38
2018-03-27T23:13:41.386Z,53.59
2018-03-27T23:16:13.926Z,53.93
2018-03-27T23:18:46.403Z,54.11
2018-03-27T23:21:19.160Z,54.71
2018-03-27T23:23:51.867Z,54.69
2018-03-27T23:26:24.495Z,53.99
2018-03-27T23:28:57.028Z,54.44
2018-03-27T23:31:29.746Z,54.66
2018-03-27T23:34:02.327Z,53.94
2018-03-27T23:36:34.827Z,54.02
2018-03-27T23:39:07.304Z,54.59
2018-03-27T23:41:39.861Z,54.23
2018-03-27T23:44:12.398Z,53.84
2018-03-27T23:46:44.980Z,54.62
2018-03-27T23:49:18.591Z,54.13
2018-03-27T23:51:51.300Z,54.22
2018-03-27T23:54:23.857Z,54.30
2018-03-27T23:56:56.574Z,53.33
2018-03-27T23:59:29.081Z,53.60
